createdAt,value
2016-08-18T00:00:08.455Z,73746
2016-08-18T00:00:17.167Z,73745
2016-08-18T00:00:25.872Z,73742
2016-08-18T00:00:34.626Z,73740
2016-08-18T00:00:43.413Z,73741
2016-08-18T00:00:52.150Z,73740
2016-08-18T00:01:00.886Z,73742
2016-08-18T00:01:10.290Z,73741
2016-08-18T00:01:19.003Z,73742
2016-08-18T00:01:27.746Z,73742
2016-08-18T00:01:36.460Z,73740
2016-08-18T00:01:45.121Z,73741
2016-08-18T00:01:53.832Z,73740
2016-08-18T00:02:02.524Z,73741
2016-08-18T00:02:11.928Z,73740
2016-08-18T00:02:20.669Z,73741
2016-08-18T00:02:29.370Z,73744
2016-08-18T00:02:38.103Z,73751
2016-08-18T00:02:46.829Z,73747
2016-08-18T00:02:55.505Z,73742
2016-08-18T00:03:04.174Z,73737
2016-08-18T00:03:12.917Z,73736
2016-08-18T00:03:21.644Z,73732
2016-08-18T00:03:30.349Z,73733
2016-08-18T00:03:39.784Z,73735
2016-08-18T00:03:48.502Z,73735
2016-08-18T00:03:57.908Z,73736
2016-08-18T00:04:06.619Z,73738
2016-08-18T00:04:15.387Z,73735
2016-08-18T00:04:24.127Z,73742
2016-08-18T00:04:32.809Z,73739
2016-08-18T00:04:41.493Z,73742
2016-08-18T00:04:50.198Z,73742
2016-08-18T00:04:58.938Z,73739
2016-08-18T00:05:07.715Z,73733
2016-08-18T00:05:16.369Z,73730
2016-08-18T00:05:25.076Z,73730
2016-08-18T00:05:33.821Z,73730
2016-08-18T00:05:42.527Z,73728
2016-08-18T00:05:51.300Z,73725
2016-08-18T00:06:00.043Z,73728
2016-08-18T00:06:08.785Z,73723
2016-08-18T00:06:18.208Z,73726
2016-08-18T00:06:26.914Z,73732
2016-08-18T00:06:35.681Z,73731
2016-08-18T00:06:44.387Z,73729
2016-08-18T00:06:53.794Z,73736
2016-08-18T00:07:02.520Z,73737
2016-08-18T00:07:11.207Z,73735
2016-08-18T00:07:19.947Z,73737
2016-08-18T00:07:28.664Z,73739
2016-08-18T00:07:37.325Z,73737
2016-08-18T00:07:46.057Z,73733
2016-08-18T00:07:54.819Z,73732
2016-08-18T00:08:03.527Z,73732
2016-08-18T00:08:12.217Z,73731
2016-08-18T00:08:20.949Z,73733
2016-08-18T00:08:29.648Z,73734
2016-08-18T00:08:38.357Z,73731
2016-08-18T00:08:47.039Z,73730
2016-08-18T00:08:55.777Z,73733
2016-08-18T00:09:04.478Z,73735
2016-08-18T00:09:13.189Z,73737
2016-08-18T00:09:21.875Z,73738
2016-08-18T00:09:30.567Z,73736
2016-08-18T00:09:39.250Z,73731
2016-08-18T00:09:47.955Z,73732
2016-08-18T00:09:56.695Z,73729
2016-08-18T00:10:05.395Z,73725
2016-08-18T00:10:14.092Z,73725
2016-08-18T00:10:22.813Z,73725
2016-08-18T00:10:31.552Z,73724
2016-08-18T00:10:40.266Z,73730
2016-08-18T00:10:48.957Z,73728
2016-08-18T00:10:57.636Z,73728
2016-08-18T00:11:06.301Z,73729
2016-08-18T00:11:15.011Z,73727
2016-08-18T00:11:23.708Z,73728
2016-08-18T00:11:32.364Z,73727
2016-08-18T00:11:41.065Z,73729
2016-08-18T00:11:49.784Z,73727
2016-08-18T00:11:58.474Z,73727
2016-08-18T00:12:07.219Z,73727
2016-08-18T00:12:15.958Z,73731
2016-08-18T00:12:24.682Z,73727
2016-08-18T00:12:33.373Z,73731
2016-08-18T00:12:42.091Z,73732
2016-08-18T00:12:50.797Z,73729
2016-08-18T00:12:59.529Z,73730
2016-08-18T00:13:08.251Z,73725
2016-08-18T00:13:17.695Z,73722
2016-08-18T00:13:26.417Z,73717
2016-08-18T00:13:35.139Z,73722
2016-08-18T00:13:43.848Z,73723
2016-08-18T00:13:52.595Z,73726
2016-08-18T00:14:01.341Z,73723
2016-08-18T00:14:10.017Z,73725
2016-08-18T00:14:18.728Z,73724
2016-08-18T00:14:28.111Z,73719
2016-08-18T00:14:36.815Z,73715
2016-08-18T00:14:45.525Z,73707
2016-08-18T00:14:54.216Z,73713
2016-08-18T00:15:02.910Z,73719
2016-08-18T00:15:11.643Z,73720
2016-08-18T00:15:20.311Z,73722
2016-08-18T00:15:28.987Z,73720
2016-08-18T00:15:37.689Z,73724
2016-08-18T00:15:46.386Z,73726
2016-08-18T00:15:55.091Z,73728
2016-08-18T00:16:03.817Z,73727
2016-08-18T00:16:12.551Z,73723
2016-08-18T00:16:21.219Z,73721
2016-08-18T00:16:29.920Z,73724
2016-08-18T00:16:38.665Z,73723
2016-08-18T00:16:47.367Z,73726
2016-08-18T00:16:56.092Z,73729
2016-08-18T00:17:05.485Z,73728
2016-08-18T00:17:14.232Z,73727
2016-08-18T00:17:22.947Z,73722
2016-08-18T00:17:31.690Z,73721
2016-08-18T00:17:40.389Z,73721
2016-08-18T00:17:49.122Z,73722
2016-08-18T00:17:57.839Z,73726
2016-08-18T00:18:06.568Z,73730
2016-08-18T00:18:15.285Z,73732
2016-08-18T00:18:24.005Z,73730
2016-08-18T00:18:32.697Z,73728
2016-08-18T00:18:41.416Z,73732
2016-08-18T00:18:50.100Z,73733
2016-08-18T00:18:58.790Z,73733
2016-08-18T00:19:07.463Z,73736
2016-08-18T00:19:16.189Z,73735
2016-08-18T00:19:24.872Z,73735
2016-08-18T00:19:33.573Z,73729
2016-08-18T00:19:42.254Z,73732
2016-08-18T00:19:50.984Z,73725
2016-08-18T00:19:59.696Z,73723
2016-08-18T00:20:08.359Z,73721
2016-08-18T00:20:17.070Z,73728
2016-08-18T00:20:25.812Z,73732
2016-08-18T00:20:34.527Z,73727
2016-08-18T00:20:43.273Z,73729
2016-08-18T00:20:51.971Z,73730
2016-08-18T00:21:00.696Z,73727
2016-08-18T00:21:09.410Z,73724
2016-08-18T00:21:18.150Z,73724
2016-08-18T00:21:26.855Z,73728
2016-08-18T00:21:35.562Z,73725
2016-08-18T00:21:44.281Z,73732
2016-08-18T00:21:52.996Z,73731
2016-08-18T00:22:01.697Z,73734
2016-08-18T00:22:11.090Z,73732
2016-08-18T00:22:19.786Z,73738
2016-08-18T00:22:28.479Z,73737
2016-08-18T00:22:37.225Z,73727
2016-08-18T00:22:45.907Z,73716
2016-08-18T00:22:54.626Z,73721
2016-08-18T00:23:03.313Z,73725
2016-08-18T00:23:12.030Z,73723
2016-08-18T00:23:20.806Z,73726
2016-08-18T00:23:29.527Z,73729
2016-08-18T00:23:38.205Z,73727
2016-08-18T00:23:46.889Z,73728
2016-08-18T00:23:55.609Z,73723
2016-08-18T00:24:04.328Z,73718
2016-08-18T00:24:13.049Z,73719
2016-08-18T00:24:21.777Z,73718
2016-08-18T00:24:30.515Z,73720
2016-08-18T00:24:39.208Z,73720
2016-08-18T00:24:47.913Z,73715
2016-08-18T00:24:56.668Z,73718
2016-08-18T00:25:05.408Z,73723
2016-08-18T00:25:14.120Z,73720
2016-08-18T00:25:22.869Z,73720
2016-08-18T00:25:31.615Z,73723
2016-08-18T00:25:40.335Z,73722
2016-08-18T00:25:49.077Z,73722
2016-08-18T00:25:57.795Z,73721
2016-08-18T00:26:06.523Z,73721
2016-08-18T00:26:15.243Z,73723
2016-08-18T00:26:23.943Z,73727
2016-08-18T00:26:32.677Z,73726
2016-08-18T00:26:41.411Z,73726
2016-08-18T00:26:50.123Z,73730
2016-08-18T00:26:58.855Z,73732
2016-08-18T00:27:07.594Z,73735
2016-08-18T00:27:16.327Z,73732
2016-08-18T00:27:25.057Z,73730
2016-08-18T00:27:33.785Z,73727
2016-08-18T00:27:42.481Z,73721
2016-08-18T00:27:51.198Z,73719
2016-08-18T00:27:59.917Z,73722
2016-08-18T00:28:08.676Z,73724
2016-08-18T00:28:17.374Z,73725
2016-08-18T00:28:26.089Z,73724
2016-08-18T00:28:34.789Z,73728
2016-08-18T00:28:43.459Z,73730
2016-08-18T00:28:52.206Z,73728
2016-08-18T00:29:00.903Z,73725
2016-08-18T00:29:09.635Z,73723
2016-08-18T00:29:18.335Z,73724
2016-08-18T00:29:27.066Z,73723
2016-08-18T00:29:36.433Z,73720
2016-08-18T00:29:45.166Z,73718
2016-08-18T00:29:53.892Z,73721
2016-08-18T00:30:02.640Z,73725
2016-08-18T00:30:11.332Z,73726
2016-08-18T00:30:20.030Z,73729
2016-08-18T00:30:28.711Z,73731
2016-08-18T00:30:38.102Z,73730
2016-08-18T00:30:46.821Z,73729
2016-08-18T00:30:55.499Z,73729
2016-08-18T00:31:04.193Z,73726
2016-08-18T00:31:12.960Z,73725
2016-08-18T00:31:21.666Z,73726
2016-08-18T00:31:30.394Z,73728
2016-08-18T00:31:39.129Z,73727
2016-08-18T00:31:47.868Z,73724
2016-08-18T00:31:56.579Z,73720
2016-08-18T00:32:05.288Z,73719
2016-08-18T00:32:13.977Z,73717
2016-08-18T00:32:22.690Z,73714
2016-08-18T00:32:31.408Z,73716
2016-08-18T00:32:40.112Z,73715
2016-08-18T00:32:48.806Z,73718
2016-08-18T00:32:57.529Z,73719
2016-08-18T00:33:06.235Z,73719
2016-08-18T00:33:15.644Z,73719
2016-08-18T00:33:24.391Z,73717
2016-08-18T00:33:33.135Z,73722
2016-08-18T00:33:41.843Z,73721
2016-08-18T00:33:50.551Z,73717
2016-08-18T00:33:59.236Z,73719
2016-08-18T00:34:07.945Z,73721
2016-08-18T00:34:16.639Z,73721
2016-08-18T00:34:25.385Z,73722
2016-08-18T00:34:34.077Z,73722
2016-08-18T00:34:42.829Z,73722
2016-08-18T00:34:51.555Z,73720
2016-08-18T00:35:00.276Z,73722
2016-08-18T00:35:08.978Z,73716
2016-08-18T00:35:17.685Z,73721
2016-08-18T00:35:26.400Z,73719
2016-08-18T00:35:35.119Z,73722
2016-08-18T00:35:43.854Z,73725
2016-08-18T00:35:52.591Z,73726
2016-08-18T00:36:01.280Z,73725
2016-08-18T00:36:10.008Z,73726
2016-08-18T00:36:18.721Z,73726
2016-08-18T00:36:27.417Z,73728
2016-08-18T00:36:36.097Z,73728
2016-08-18T00:36:44.787Z,73732
2016-08-18T00:36:53.500Z,73729
2016-08-18T00:37:02.211Z,73727
2016-08-18T00:37:10.916Z,73729
2016-08-18T00:37:19.660Z,73724
2016-08-18T00:37:28.378Z,73722
2016-08-18T00:37:37.095Z,73722
2016-08-18T00:37:45.798Z,73724
2016-08-18T00:37:54.502Z,73723
2016-08-18T00:38:03.212Z,73726
2016-08-18T00:38:11.916Z,73725
2016-08-18T00:38:20.609Z,73723
2016-08-18T00:38:29.280Z,73720
2016-08-18T00:38:37.985Z,73716
2016-08-18T00:38:46.726Z,73717
2016-08-18T00:38:55.443Z,73718
2016-08-18T00:39:04.197Z,73718
2016-08-18T00:39:12.906Z,73721
2016-08-18T00:39:21.632Z,73720
2016-08-18T00:39:30.354Z,73720
2016-08-18T00:39:39.063Z,73719
2016-08-18T00:39:47.804Z,73722
2016-08-18T00:39:56.531Z,73720
2016-08-18T00:40:05.268Z,73712
2016-08-18T00:40:13.984Z,73708
2016-08-18T00:40:22.710Z,73704
2016-08-18T00:40:31.403Z,73706
2016-08-18T00:40:40.125Z,73705
2016-08-18T00:40:48.838Z,73707
2016-08-18T00:40:57.565Z,73705
2016-08-18T00:41:06.247Z,73700
2016-08-18T00:41:14.969Z,73707
2016-08-18T00:41:23.715Z,73713
2016-08-18T00:41:32.412Z,73714
2016-08-18T00:41:41.095Z,73713
2016-08-18T00:41:49.824Z,73716
2016-08-18T00:41:58.538Z,73716
2016-08-18T00:42:07.255Z,73716
2016-08-18T00:42:15.934Z,73718
2016-08-18T00:42:24.634Z,73719
2016-08-18T00:42:33.322Z,73720
2016-08-18T00:42:42.033Z,73721
2016-08-18T00:42:50.741Z,73721
2016-08-18T00:42:59.431Z,73726
2016-08-18T00:43:08.156Z,73726
2016-08-18T00:43:16.849Z,73720
2016-08-18T00:43:25.606Z,73725
2016-08-18T00:43:34.328Z,73723
2016-08-18T00:43:43.033Z,73721
2016-08-18T00:43:51.782Z,73725
2016-08-18T00:44:00.517Z,73726
2016-08-18T00:44:09.222Z,73725
2016-08-18T00:44:17.932Z,73721
2016-08-18T00:44:26.604Z,73717
2016-08-18T00:44:35.331Z,73713
2016-08-18T00:44:44.051Z,73715
2016-08-18T00:44:52.780Z,73716
2016-08-18T00:45:01.523Z,73712
2016-08-18T00:45:10.228Z,73713
2016-08-18T00:45:18.916Z,73707
2016-08-18T00:45:27.651Z,73712
2016-08-18T00:45:36.340Z,73711
2016-08-18T00:45:45.080Z,73712
2016-08-18T00:45:53.794Z,73713
2016-08-18T00:46:02.514Z,73714
2016-08-18T00:46:11.891Z,73712
2016-08-18T00:46:20.597Z,73712
2016-08-18T00:46:29.351Z,73712
2016-08-18T00:46:38.046Z,73709
2016-08-18T00:46:46.783Z,73713
2016-08-18T00:46:55.487Z,73714
2016-08-18T00:47:04.201Z,73714
2016-08-18T00:47:12.966Z,73715
2016-08-18T00:47:21.678Z,73714
2016-08-18T00:47:30.381Z,73717
2016-08-18T00:47:39.134Z,73716
2016-08-18T00:47:47.854Z,73715
2016-08-18T00:47:56.628Z,73715
2016-08-18T00:48:05.355Z,73715
2016-08-18T00:48:14.042Z,73717
2016-08-18T00:48:22.733Z,73718
2016-08-18T00:48:31.456Z,73717
2016-08-18T00:48:40.155Z,73720
2016-08-18T00:48:48.877Z,73722
2016-08-18T00:48:57.558Z,73724
2016-08-18T00:49:06.244Z,73726
2016-08-18T00:49:14.963Z,73722
2016-08-18T00:49:23.665Z,73723
2016-08-18T00:49:32.390Z,73715
2016-08-18T00:49:41.074Z,73708
2016-08-18T00:49:49.766Z,73711
2016-08-18T00:49:58.505Z,73709
2016-08-18T00:50:07.886Z,73706
2016-08-18T00:50:17.300Z,73712
2016-08-18T00:50:26.061Z,73714
2016-08-18T00:50:34.749Z,73717
2016-08-18T00:50:43.468Z,73718
2016-08-18T00:50:52.175Z,73716
2016-08-18T00:51:00.909Z,73716
2016-08-18T00:51:09.594Z,73717
2016-08-18T00:51:18.340Z,73717
2016-08-18T00:51:27.065Z,73709
2016-08-18T00:51:35.786Z,73708
2016-08-18T00:51:45.163Z,73701
2016-08-18T00:51:53.897Z,73705
2016-08-18T00:52:02.617Z,73701
2016-08-18T00:52:11.322Z,73705
2016-08-18T00:52:20.028Z,73708
2016-08-18T00:52:28.744Z,73713
2016-08-18T00:52:37.439Z,73711
2016-08-18T00:52:46.179Z,73715
2016-08-18T00:52:54.887Z,73712
2016-08-18T00:53:04.281Z,73714
2016-08-18T00:53:13.007Z,73710
2016-08-18T00:53:21.706Z,73713
2016-08-18T00:53:30.368Z,73714
2016-08-18T00:53:39.074Z,73714
2016-08-18T00:53:47.790Z,73715
2016-08-18T00:53:56.508Z,73712
2016-08-18T00:54:05.191Z,73712
2016-08-18T00:54:13.945Z,73709
2016-08-18T00:54:22.703Z,73710
2016-08-18T00:54:31.403Z,73713
2016-08-18T00:54:40.106Z,73715
2016-08-18T00:54:48.814Z,73712
2016-08-18T00:54:57.513Z,73714
2016-08-18T00:55:06.233Z,73711
2016-08-18T00:55:14.910Z,73711
2016-08-18T00:55:23.606Z,73710
2016-08-18T00:55:32.291Z,73712
2016-08-18T00:55:41.669Z,73713
2016-08-18T00:55:50.429Z,73712
2016-08-18T00:55:59.174Z,73709
2016-08-18T00:56:07.884Z,73708
2016-08-18T00:56:16.588Z,73711
2016-08-18T00:56:25.299Z,73715
2016-08-18T00:56:34.023Z,73708
2016-08-18T00:56:42.713Z,73708
2016-08-18T00:56:51.463Z,73702
2016-08-18T00:57:00.222Z,73699
2016-08-18T00:57:08.928Z,73706
2016-08-18T00:57:17.620Z,73710
2016-08-18T00:57:26.355Z,73711
2016-08-18T00:57:35.077Z,73717
2016-08-18T00:57:43.769Z,73711
2016-08-18T00:57:52.538Z,73711
2016-08-18T00:58:01.239Z,73712
2016-08-18T00:58:09.958Z,73716
2016-08-18T00:58:18.653Z,73715
2016-08-18T00:58:27.389Z,73716
2016-08-18T00:58:36.153Z,73711
2016-08-18T00:58:44.852Z,73715
2016-08-18T00:58:53.600Z,73715
2016-08-18T00:59:02.305Z,73714
2016-08-18T00:59:10.998Z,73713
2016-08-18T00:59:19.682Z,73715
2016-08-18T00:59:28.393Z,73717
2016-08-18T00:59:37.071Z,73715
2016-08-18T00:59:45.778Z,73719
2016-08-18T00:59:54.488Z,73717
2016-08-18T01:00:03.216Z,73716
2016-08-18T01:00:11.953Z,73715
2016-08-18T01:00:20.667Z,73710
2016-08-18T01:00:29.392Z,73710
2016-08-18T01:00:38.076Z,73709
2016-08-18T01:00:46.779Z,73713
2016-08-18T01:00:55.512Z,73716
2016-08-18T01:01:04.246Z,73716
2016-08-18T01:01:12.974Z,73719
2016-08-18T01:01:21.717Z,73722
2016-08-18T01:01:31.091Z,73719
2016-08-18T01:01:39.792Z,73719
2016-08-18T01:01:48.516Z,73715
2016-08-18T01:01:57.199Z,73714
2016-08-18T01:02:05.907Z,73715
2016-08-18T01:02:14.611Z,73714
2016-08-18T01:02:23.358Z,73718
2016-08-18T01:02:32.050Z,73716
2016-08-18T01:02:40.750Z,73719
2016-08-18T01:02:49.496Z,73720
2016-08-18T01:02:58.176Z,73722
2016-08-18T01:03:06.909Z,73719
2016-08-18T01:03:15.624Z,73722
2016-08-18T01:03:24.309Z,73717
2016-08-18T01:03:33.034Z,73717
2016-08-18T01:03:41.715Z,73714
2016-08-18T01:03:50.452Z,73715
2016-08-18T01:03:59.182Z,73717
2016-08-18T01:04:07.911Z,73718
2016-08-18T01:04:16.616Z,73717
2016-08-18T01:04:25.350Z,73717
2016-08-18T01:04:34.065Z,73715
2016-08-18T01:04:42.795Z,73716
2016-08-18T01:04:51.526Z,73719
2016-08-18T01:05:00.235Z,73721
2016-08-18T01:05:08.955Z,73720
2016-08-18T01:05:17.666Z,73720
2016-08-18T01:05:26.359Z,73718
2016-08-18T01:05:35.062Z,73714
2016-08-18T01:05:43.800Z,73709
2016-08-18T01:05:52.508Z,73701
2016-08-18T01:06:01.251Z,73700
2016-08-18T01:06:09.965Z,73701
2016-08-18T01:06:19.358Z,73698
2016-08-18T01:06:28.086Z,73700
2016-08-18T01:06:36.850Z,73697
2016-08-18T01:06:45.574Z,73699
2016-08-18T01:06:54.290Z,73698
2016-08-18T01:07:03.008Z,73700
2016-08-18T01:07:11.712Z,73705
2016-08-18T01:07:20.420Z,73707
2016-08-18T01:07:29.119Z,73706
2016-08-18T01:07:37.860Z,73706
2016-08-18T01:07:46.582Z,73706
2016-08-18T01:07:55.287Z,73705
2016-08-18T01:08:03.949Z,73704
2016-08-18T01:08:12.676Z,73705
2016-08-18T01:08:21.363Z,73707
2016-08-18T01:08:30.071Z,73705
2016-08-18T01:08:38.821Z,73704
2016-08-18T01:08:47.537Z,73711
2016-08-18T01:08:56.261Z,73706
2016-08-18T01:09:04.972Z,73707
2016-08-18T01:09:13.668Z,73709
2016-08-18T01:09:22.397Z,73709
2016-08-18T01:09:31.122Z,73709
2016-08-18T01:09:39.842Z,73708
2016-08-18T01:09:48.539Z,73702
2016-08-18T01:09:57.252Z,73699
2016-08-18T01:10:05.970Z,73696
2016-08-18T01:10:14.717Z,73697
2016-08-18T01:10:23.493Z,73699
2016-08-18T01:10:32.202Z,73698
2016-08-18T01:10:40.942Z,73700
2016-08-18T01:10:49.645Z,73704
2016-08-18T01:10:58.369Z,73703
2016-08-18T01:11:07.031Z,73705
2016-08-18T01:11:15.722Z,73704
2016-08-18T01:11:24.483Z,73704
2016-08-18T01:11:33.201Z,73703
2016-08-18T01:11:41.891Z,73704
2016-08-18T01:11:50.591Z,73709
2016-08-18T01:11:59.333Z,73707
2016-08-18T01:12:08.087Z,73706
2016-08-18T01:12:16.805Z,73706
2016-08-18T01:12:25.510Z,73704
2016-08-18T01:12:34.914Z,73695
2016-08-18T01:12:43.635Z,73695
2016-08-18T01:12:52.352Z,73694
2016-08-18T01:13:01.070Z,73695
2016-08-18T01:13:09.786Z,73700
2016-08-18T01:13:18.535Z,73694
2016-08-18T01:13:27.263Z,73696
2016-08-18T01:13:35.985Z,73698
2016-08-18T01:13:44.716Z,73700
2016-08-18T01:13:53.423Z,73698
2016-08-18T01:14:02.130Z,73701
2016-08-18T01:14:10.849Z,73700
2016-08-18T01:14:19.589Z,73699
2016-08-18T01:14:28.257Z,73703
2016-08-18T01:14:36.962Z,73703
2016-08-18T01:14:45.687Z,73707
2016-08-18T01:14:54.411Z,73703
2016-08-18T01:15:03.173Z,73703
2016-08-18T01:15:11.878Z,73701
2016-08-18T01:15:20.606Z,73701
2016-08-18T01:15:29.361Z,73700
2016-08-18T01:15:38.113Z,73699
2016-08-18T01:15:46.819Z,73699
2016-08-18T01:15:55.530Z,73696
2016-08-18T01:16:04.247Z,73694
2016-08-18T01:16:12.980Z,73696
2016-08-18T01:16:21.682Z,73700
2016-08-18T01:16:30.347Z,73704
2016-08-18T01:16:39.078Z,73700
2016-08-18T01:16:47.809Z,73701
2016-08-18T01:16:56.481Z,73705
2016-08-18T01:17:05.189Z,73706
2016-08-18T01:17:13.895Z,73702
2016-08-18T01:17:22.604Z,73702
2016-08-18T01:17:31.363Z,73699
2016-08-18T01:17:40.035Z,73698
2016-08-18T01:17:48.750Z,73700
2016-08-18T01:17:57.476Z,73700
2016-08-18T01:18:06.168Z,73700
2016-08-18T01:18:14.893Z,73702
2016-08-18T01:18:23.579Z,73705
2016-08-18T01:18:32.266Z,73704
2016-08-18T01:18:40.959Z,73705
2016-08-18T01:18:49.666Z,73710
2016-08-18T01:18:58.367Z,73709
2016-08-18T01:19:07.089Z,73708
2016-08-18T01:19:15.816Z,73708
2016-08-18T01:19:25.209Z,73700
2016-08-18T01:19:33.917Z,73699
2016-08-18T01:19:42.600Z,73700
2016-08-18T01:19:51.306Z,73705
2016-08-18T01:20:00.002Z,73706
2016-08-18T01:20:08.709Z,73710
2016-08-18T01:20:17.435Z,73705
2016-08-18T01:20:26.137Z,73705
2016-08-18T01:20:34.820Z,73703
2016-08-18T01:20:43.526Z,73709
2016-08-18T01:20:52.217Z,73709
2016-08-18T01:21:00.948Z,73708
2016-08-18T01:21:09.660Z,73705
2016-08-18T01:21:18.359Z,73699
2016-08-18T01:21:27.091Z,73698
2016-08-18T01:21:35.798Z,73700
2016-08-18T01:21:44.511Z,73705
2016-08-18T01:21:53.227Z,73702
2016-08-18T01:22:01.920Z,73705
2016-08-18T01:22:10.644Z,73703
2016-08-18T01:22:19.384Z,73699
2016-08-18T01:22:28.146Z,73701
2016-08-18T01:22:36.837Z,73702
2016-08-18T01:22:45.540Z,73703
2016-08-18T01:22:54.233Z,73705
2016-08-18T01:23:02.939Z,73704
2016-08-18T01:23:11.691Z,73707
2016-08-18T01:23:20.368Z,73709
2016-08-18T01:23:29.091Z,73707
2016-08-18T01:23:37.802Z,73708
2016-08-18T01:23:46.525Z,73711
2016-08-18T01:23:55.238Z,73717
2016-08-18T01:24:03.954Z,73716
2016-08-18T01:24:12.635Z,73709
2016-08-18T01:24:21.390Z,73706
2016-08-18T01:24:30.122Z,73706
2016-08-18T01:24:38.842Z,73706
2016-08-18T01:24:47.567Z,73708
2016-08-18T01:24:56.261Z,73707
2016-08-18T01:25:04.977Z,73712
2016-08-18T01:25:13.689Z,73712
2016-08-18T01:25:22.389Z,73717
2016-08-18T01:25:31.123Z,73716
2016-08-18T01:25:39.805Z,73718
2016-08-18T01:25:48.523Z,73716
2016-08-18T01:25:57.237Z,73715
2016-08-18T01:26:05.971Z,73711
2016-08-18T01:26:14.722Z,73713
2016-08-18T01:26:23.459Z,73706
2016-08-18T01:26:32.146Z,73705
2016-08-18T01:26:40.871Z,73702
2016-08-18T01:26:49.536Z,73698
2016-08-18T01:26:58.195Z,73699
2016-08-18T01:27:07.629Z,73703
2016-08-18T01:27:16.315Z,73705
2016-08-18T01:27:25.018Z,73701
2016-08-18T01:27:33.752Z,73700
2016-08-18T01:27:42.473Z,73703
2016-08-18T01:27:51.213Z,73704
2016-08-18T01:27:59.935Z,73705
2016-08-18T01:28:09.338Z,73707
2016-08-18T01:28:18.044Z,73710
2016-08-18T01:28:26.753Z,73708
2016-08-18T01:28:35.451Z,73710
2016-08-18T01:28:44.140Z,73712
2016-08-18T01:28:52.836Z,73710
2016-08-18T01:29:01.547Z,73713
2016-08-18T01:29:10.314Z,73712
2016-08-18T01:29:19.007Z,73709
2016-08-18T01:29:27.740Z,73713
2016-08-18T01:29:36.485Z,73712
2016-08-18T01:29:45.163Z,73713
2016-08-18T01:29:53.858Z,73712
2016-08-18T01:30:02.612Z,73707
2016-08-18T01:30:11.337Z,73709
2016-08-18T01:30:20.042Z,73709
2016-08-18T01:30:29.464Z,73707
2016-08-18T01:30:38.170Z,73706
2016-08-18T01:30:47.583Z,73709
2016-08-18T01:30:56.294Z,73707
2016-08-18T01:31:04.990Z,73701
2016-08-18T01:31:13.653Z,73700
2016-08-18T01:31:22.362Z,73702
2016-08-18T01:31:31.107Z,73704
2016-08-18T01:31:39.790Z,73702
2016-08-18T01:31:48.482Z,73705
2016-08-18T01:31:57.205Z,73705
2016-08-18T01:32:06.619Z,73706
2016-08-18T01:32:15.283Z,73703
2016-08-18T01:32:23.980Z,73704
2016-08-18T01:32:32.670Z,73708
2016-08-18T01:32:41.402Z,73709
2016-08-18T01:32:50.102Z,73709
2016-08-18T01:32:58.826Z,73709
2016-08-18T01:33:07.567Z,73715
2016-08-18T01:33:16.276Z,73712
2016-08-18T01:33:24.975Z,73707
2016-08-18T01:33:33.682Z,73711
2016-08-18T01:33:42.388Z,73708
2016-08-18T01:33:51.122Z,73710
2016-08-18T01:33:59.845Z,73710
2016-08-18T01:34:08.565Z,73708
2016-08-18T01:34:17.257Z,73712
2016-08-18T01:34:25.983Z,73710
2016-08-18T01:34:34.712Z,73708
2016-08-18T01:34:43.430Z,73712
2016-08-18T01:34:52.163Z,73714
2016-08-18T01:35:00.876Z,73711
2016-08-18T01:35:09.569Z,73714
2016-08-18T01:35:18.307Z,73715
2016-08-18T01:35:27.023Z,73714
2016-08-18T01:35:35.732Z,73714
2016-08-18T01:35:44.478Z,73717
2016-08-18T01:35:53.200Z,73716
2016-08-18T01:36:01.908Z,73715
2016-08-18T01:36:10.587Z,73714
2016-08-18T01:36:19.276Z,73718
2016-08-18T01:36:27.983Z,73719
2016-08-18T01:36:36.724Z,73715
2016-08-18T01:36:45.431Z,73714
2016-08-18T01:36:54.176Z,73717
2016-08-18T01:37:02.922Z,73714
2016-08-18T01:37:11.600Z,73719
2016-08-18T01:37:20.300Z,73714
2016-08-18T01:37:29.020Z,73708
2016-08-18T01:37:37.739Z,73709
2016-08-18T01:37:46.469Z,73708
2016-08-18T01:37:55.192Z,73707
2016-08-18T01:38:03.910Z,73710
2016-08-18T01:38:12.591Z,73711
2016-08-18T01:38:21.274Z,73706
2016-08-18T01:38:30.017Z,73705
2016-08-18T01:38:38.718Z,73706
2016-08-18T01:38:47.437Z,73708
2016-08-18T01:38:56.126Z,73708
2016-08-18T01:39:04.827Z,73710
2016-08-18T01:39:14.225Z,73712
2016-08-18T01:39:22.976Z,73710
2016-08-18T01:39:31.671Z,73707
2016-08-18T01:39:40.377Z,73710
2016-08-18T01:39:49.086Z,73711
2016-08-18T01:39:57.818Z,73709
2016-08-18T01:40:06.563Z,73712
2016-08-18T01:40:15.243Z,73713
2016-08-18T01:40:23.970Z,73714
2016-08-18T01:40:32.651Z,73713
2016-08-18T01:40:41.353Z,73710
2016-08-18T01:40:50.044Z,73709
2016-08-18T01:40:58.769Z,73710
2016-08-18T01:41:07.512Z,73710
2016-08-18T01:41:16.216Z,73712
2016-08-18T01:41:24.902Z,73711
2016-08-18T01:41:33.592Z,73705
2016-08-18T01:41:42.358Z,73707
2016-08-18T01:41:51.073Z,73705
2016-08-18T01:41:59.788Z,73705
2016-08-18T01:42:08.513Z,73704
2016-08-18T01:42:17.258Z,73700
2016-08-18T01:42:26.007Z,73698
2016-08-18T01:42:34.732Z,73702
2016-08-18T01:42:43.427Z,73710
2016-08-18T01:42:52.153Z,73710
2016-08-18T01:43:00.879Z,73711
2016-08-18T01:43:09.575Z,73708
2016-08-18T01:43:18.275Z,73709
2016-08-18T01:43:26.936Z,73710
2016-08-18T01:43:35.651Z,73711
2016-08-18T01:43:44.402Z,73710
2016-08-18T01:43:53.120Z,73703
2016-08-18T01:44:01.864Z,73701
2016-08-18T01:44:10.552Z,73699
2016-08-18T01:44:19.299Z,73699
2016-08-18T01:44:27.994Z,73707
2016-08-18T01:44:36.726Z,73707
2016-08-18T01:44:45.452Z,73708
2016-08-18T01:44:54.142Z,73711
2016-08-18T01:45:02.863Z,73711
2016-08-18T01:45:12.256Z,73712
2016-08-18T01:45:20.973Z,73713
2016-08-18T01:45:29.675Z,73709
2016-08-18T01:45:38.436Z,73708
2016-08-18T01:45:47.134Z,73711
2016-08-18T01:45:55.876Z,73713
2016-08-18T01:46:04.630Z,73711
2016-08-18T01:46:13.371Z,73714
2016-08-18T01:46:22.099Z,73716
2016-08-18T01:46:30.839Z,73710
2016-08-18T01:46:39.564Z,73700
2016-08-18T01:46:48.311Z,73701
2016-08-18T01:46:56.979Z,73707
2016-08-18T01:47:05.730Z,73706
2016-08-18T01:47:14.469Z,73710
2016-08-18T01:47:23.179Z,73708
2016-08-18T01:47:31.915Z,73709
2016-08-18T01:47:40.635Z,73709
2016-08-18T01:47:49.314Z,73710
2016-08-18T01:47:57.993Z,73708
2016-08-18T01:48:06.692Z,73715
2016-08-18T01:48:15.406Z,73712
2016-08-18T01:48:24.148Z,73708
2016-08-18T01:48:32.902Z,73704
2016-08-18T01:48:41.617Z,73701
2016-08-18T01:48:50.319Z,73703
2016-08-18T01:48:59.030Z,73707
2016-08-18T01:49:07.778Z,73707
2016-08-18T01:49:17.185Z,73705
2016-08-18T01:49:25.943Z,73704
2016-08-18T01:49:34.674Z,73703
2016-08-18T01:49:43.393Z,73702
2016-08-18T01:49:52.095Z,73703
2016-08-18T01:50:00.801Z,73701
2016-08-18T01:50:09.514Z,73700
2016-08-18T01:50:18.203Z,73703
2016-08-18T01:50:26.918Z,73708
2016-08-18T01:50:35.655Z,73693
2016-08-18T01:50:44.375Z,73701
2016-08-18T01:50:53.079Z,73701
2016-08-18T01:51:01.763Z,73704
2016-08-18T01:51:10.519Z,73700
2016-08-18T01:51:19.251Z,73701
2016-08-18T01:51:27.987Z,73704
2016-08-18T01:51:36.730Z,73701
2016-08-18T01:51:45.435Z,73703
2016-08-18T01:51:54.137Z,73701
2016-08-18T01:52:02.786Z,73702
2016-08-18T01:52:11.491Z,73703
2016-08-18T01:52:20.171Z,73703
2016-08-18T01:52:28.908Z,73701
2016-08-18T01:52:37.632Z,73699